Latest Weather Observations for Marble Bar

IDW60801

Issued at 7:04 pm WST Saturday 25 March 2017 (issued every 30 minutes, with the page automatically refreshed every 10 minutes)

About weather observations | Map of weather stations | Latest weather observations for WA | Other Formats
Station Details ID: 004106 Name: MARBLE BAR Lat: -21.18 Lon: 119.75 Height: 182.3 m
Data from the previous 72 hours. | See also: Recent months at Marble Bar
Date/Time
WST
Temp
°C
App
Temp
°C
Dew
Point
°C
Rel
Hum
%
Delta-T
°C
Wind Press
QNH
hPa
Press
MSL
hPa
Rain since
9am
mm
Dir  Spd
km/h
Gust
km/h
Spd
kts
Gust
kts
25/07:00pm 29.8 33.9 23.0 67 4.7 N 6 7 3 4 1007.8 1006.3 0.0
25/06:30pm 30.6 34.6 22.7 62 5.4 N 6 6 3 3 1007.3 1005.8 0.0
25/06:00pm 31.3 34.9 22.0 57 6.4 N 6 7 3 4 1006.9 1005.4 0.0
25/05:30pm 32.7 35.4 20.6 49 8.1 N 7 13 4 7 1006.4 1004.9 0.0
25/05:00pm 33.5 35.7 20.3 46 8.9 N 9 13 5 7 1006.1 1004.7 0.0
25/04:30pm 33.8 35.7 19.8 43 9.3 NNE 9 15 5 8 1006.1 1004.7 0.0
25/04:00pm 34.2 35.9 20.2 43 9.4 N 11 15 6 8 1006.0 1004.6 0.0
25/03:30pm 34.2 36.3 20.2 43 9.4 N 9 20 5 11 1006.4 1004.9 0.0
25/03:00pm 34.4 36.2 20.4 44 9.4 NNE 11 19 6 10 1006.5 1005.0 0.0
25/02:30pm 33.8 35.5 20.2 44 9.1 N 11 19 6 10 1006.8 1005.3 0.0
25/02:00pm 33.0 35.1 20.2 47 8.6 NNW 9 13 5 7 1007.0 1005.5 0.0
25/01:30pm 34.0 36.2 21.1 47 8.8 N 11 17 6 9 1007.1 1005.6 0.0
25/01:00pm 33.0 35.2 21.2 50 8.0 NNW 11 17 6 9 1007.6 1006.1 0.0
25/12:30pm 33.8 37.3 21.9 49 8.2 NW 6 13 3 7 1007.8 1006.3 0.0
25/12:00pm 32.0 35.1 22.1 55 6.8 N 9 15 5 8 1008.5 1007.1 0.0
25/11:30am 32.1 35.4 21.9 54 7.0 NW 7 11 4 6 1008.8 1007.4 0.0
25/11:00am 32.2 36.4 23.4 59 6.1 NNE 7 13 4 7 1009.1 1007.7 0.0
25/10:30am 30.9 35.5 23.8 66 5.0 N 6 11 3 6 1009.5 1008.1 0.0
25/10:00am 30.4 34.8 23.8 68 4.6 N 7 11 4 6 1009.9 1008.5 0.0
25/09:30am 29.2 34.1 23.6 72 3.9 NW 4 9 2 5 1009.9 1008.5 0.0
25/09:00am 29.1 34.4 24.4 76 3.3 NNW 4 9 2 5 1009.8 1008.4 0.2
25/08:30am 27.8 33.5 25.6 88 1.6 N 6 9 3 5 1009.7 1008.3 0.2
25/08:00am 26.8 33.0 26.3 97 0.4 NNE 6 9 3 5 1009.6 1008.2 0.2
25/07:30am 25.8 32.0 25.8 100 0.0 NE 4 6 2 3 1009.3 1007.9 0.2
25/07:00am 25.6 32.1 25.6 100 0.0 E 2 6 1 3 1009.0 1007.6 0.2
25/06:30am 25.1 31.6 25.1 100 0.0 CALM 0 0 0 0 1008.8 1007.4 0.2
25/06:00am 24.9 30.9 24.9 100 0.0 ENE 2 6 1 3 1008.7 1007.3 0.2
25/05:30am 25.1 30.9 25.1 100 0.0 ENE 4 6 2 3 1008.5 1007.1 0.2
25/05:00am 25.1 30.9 25.1 100 0.0 NE 4 7 2 4 1008.1 1006.7 0.2
25/04:30am 25.3 30.8 25.3 100 0.0 NE 6 7 3 4 1008.0 1006.6 0.2
25/04:00am 25.3 30.8 25.3 100 0.0 NNE 6 6 3 3 1008.0 1006.6 0.2
25/03:30am 25.3 31.2 25.3 100 0.0 NNE 4 6 2 3 1008.0 1006.6 0.2
25/03:00am 25.5 30.9 25.5 100 0.0 NNE 7 9 4 5 1008.0 1006.6 0.2
25/02:30am 25.3 31.2 25.3 100 0.0 NE 4 6 2 3 1008.1 1006.7 0.2
25/02:00am 25.4 30.8 25.2 99 0.1 ENE 6 6 3 3 1008.1 1006.7 0.2
25/01:30am 25.2 31.6 24.9 98 0.2 CALM 0 0 0 0 1008.0 1006.6 0.2
25/01:00am 25.5 31.8 24.8 96 0.5 CALM 0 0 0 0 1008.3 1006.9 0.2
25/12:30am 25.7 31.6 24.7 94 0.7 N 2 4 1 2 1008.5 1007.1 0.2
25/12:00am 25.9 31.7 24.5 92 1.0 NE 2 4 1 2 1008.5 1007.1 0.2
 
Date/Time
WST
Temp
°C
App
Temp
°C
Dew
Point
°C
Rel
Hum
%
Delta-T
°C
Wind Press
QNH
hPa
Press
MSL
hPa
Rain since
9am
mm
Dir  Spd
km/h
Gust
km/h
Spd
kts
Gust
kts
24/11:30pm 26.1 31.1 24.5 91 1.1 N 6 7 3 4 1008.8 1007.4 0.2
24/11:00pm 26.0 31.3 24.4 91 1.1 NNW 4 9 2 5 1008.8 1007.4 0.2
24/10:30pm 26.1 30.8 24.0 88 1.5 NNW 6 7 3 4 1008.8 1007.4 0.2
24/10:00pm 26.3 30.7 23.8 86 1.7 NW 7 9 4 5 1008.7 1007.3 0.2
24/09:30pm 26.8 30.4 23.7 83 2.1 NW 11 17 6 9 1008.6 1007.2 0.2
24/09:00pm 26.8 30.6 23.5 82 2.3 NNW 9 13 5 7 1008.6 1007.2 0.2
24/08:30pm 27.3 31.0 23.3 79 2.7 NW 9 13 5 7 1008.3 1006.9 0.2
24/08:00pm 27.6 31.0 23.4 78 2.9 NNW 11 17 6 9 1007.8 1006.3 0.2
24/07:30pm 28.2 30.7 23.1 74 3.5 NNW 15 20 8 11 1007.5 1006.0 0.2
24/07:00pm 28.5 30.8 22.7 71 4.0 NNW 15 20 8 11 1007.0 1005.5 0.2
24/06:30pm 28.8 32.0 23.0 71 4.0 NNW 11 15 6 8 1006.5 1005.0 0.2
24/06:00pm 29.6 32.3 22.8 67 4.7 N 13 22 7 12 1006.0 1004.6 0.2
24/05:30pm 30.6 32.5 22.7 62 5.4 NNW 17 28 9 15 1005.6 1004.2 0.2
24/05:00pm 31.5 32.7 22.2 57 6.4 NNW 19 24 10 13 1005.2 1003.8 0.2
24/04:30pm 31.3 32.6 22.3 58 6.2 NNW 19 26 10 14 1005.2 1003.8 0.2
24/04:00pm 31.8 33.0 22.5 58 6.4 N 20 28 11 15 1005.0 1003.6 0.2
24/03:30pm 32.1 33.7 22.8 58 6.4 N 19 26 10 14 1005.0 1003.6 0.2
24/03:00pm 32.8 34.7 23.4 57 6.6 N 19 28 10 15 1005.2 1003.8 0.2
24/02:30pm 32.7 34.4 23.1 57 6.7 NNW 19 26 10 14 1005.4 1004.0 0.2
24/02:00pm 31.4 33.3 22.7 60 6.0 NNW 17 24 9 13 1005.6 1004.2 0.2
24/01:30pm 30.8 33.1 22.7 62 5.6 NNW 15 22 8 12 1005.7 1004.3 0.2
24/01:00pm 30.8 32.8 22.9 62 5.5 NNW 17 24 9 13 1005.9 1004.5 0.2
24/12:30pm 30.9 33.9 23.3 64 5.3 NNW 13 20 7 11 1006.3 1004.8 0.2
24/12:00pm 30.8 33.8 24.0 67 4.8 NNW 15 26 8 14 1006.6 1005.1 0.2
24/11:30am 29.7 31.9 23.2 68 4.5 NNW 17 24 9 13 1006.9 1005.4 0.2
24/11:00am 28.7 31.7 23.4 73 3.7 NW 13 17 7 9 1007.1 1005.6 0.2
24/10:30am 29.2 32.3 24.1 74 3.6 NNW 15 22 8 12 1007.4 1005.9 0.0
24/10:00am 27.5 30.6 24.1 82 2.4 N 15 20 8 11 1007.7 1006.2 0.0
24/09:30am 27.0 30.3 24.5 86 1.7 N 15 22 8 12 1007.9 1006.5 0.0
24/09:00am 26.8 30.2 24.6 88 1.5 N 15 20 8 11 1007.8 1006.3 51.8
24/08:30am 26.2 30.1 24.8 92 1.0 N 13 20 7 11 1007.5 1006.0 51.8
24/08:00am 25.8 30.1 24.9 95 0.6 N 11 15 6 8 1007.0 1005.5 51.8
24/07:30am 25.4 30.8 25.4 100 0.0 N 7 9 4 5 1006.6 1005.1 51.8
24/07:00am 24.9 29.6 24.9 100 0.0 N 9 13 5 7 1006.4 1004.9 51.8
24/06:30am 24.7 29.3 24.7 100 0.0 NNE 9 13 5 7 1005.9 1004.5 51.8
24/06:00am 24.7 29.3 24.7 100 0.0 NNE 9 15 5 8 1005.2 1003.8 51.8
24/05:30am 24.8 30.4 24.8 100 0.0 NNE 4 7 2 4 1005.0 1003.6 51.8
24/05:00am 24.9 29.6 24.9 100 0.0 N 9 13 5 7 1004.7 1003.3 51.8
24/04:30am 24.9 29.1 24.7 99 0.1 N 11 17 6 9 1004.7 1003.3 51.8
24/04:00am 24.9 29.2 24.9 100 0.0 N 11 17 6 9 1004.5 1003.1 51.8
24/03:30am 24.8 29.4 24.8 100 0.0 N 9 13 5 7 1004.5 1003.1 51.8
24/03:00am 24.8 29.4 24.8 100 0.0 N 9 15 5 8 1004.3 1002.9 51.8
24/02:30am 24.8 29.7 24.6 99 0.1 N 7 13 4 7 1004.4 1003.0 51.8
24/02:00am 24.8 28.9 24.6 99 0.1 N 11 17 6 9 1004.6 1003.2 51.8
24/01:30am 24.8 28.2 24.6 99 0.1 N 15 20 8 11 1004.6 1003.2 51.8
24/01:00am 24.8 28.5 24.6 99 0.1 NNW 13 19 7 10 1004.6 1003.2 51.8
24/12:30am 24.8 27.7 24.5 98 0.2 NNW 17 26 9 14 1004.6 1003.2 51.8
24/12:00am 24.8 27.1 24.5 98 0.2 NNW 20 30 11 16 1004.5 1003.1 51.8
 
Date/Time
WST
Temp
°C
App
Temp
°C
Dew
Point
°C
Rel
Hum
%
Delta-T
°C
Wind Press
QNH
hPa
Press
MSL
hPa
Rain since
9am
mm
Dir  Spd
km/h
Gust
km/h
Spd
kts
Gust
kts
23/11:30pm 24.8 26.5 24.6 99 0.1 N 24 35 13 19 1004.4 1003.0 51.8
23/11:00pm 24.9 27.4 24.7 99 0.1 NNW 20 33 11 18 1004.3 1002.9 51.8
23/10:30pm 25.1 27.7 24.9 99 0.1 N 20 37 11 20 1004.2 1002.8 51.8
23/10:00pm 25.3 27.4 25.3 100 0.0 N 24 41 13 22 1003.8 1002.4 51.6
23/09:30pm 25.2 27.6 25.2 100 0.0 N 22 35 12 19 1003.9 1002.5 48.8
23/09:00pm 25.6 27.5 25.6 100 0.0 N 26 37 14 20 1003.6 1002.2 47.8
23/08:30pm 25.4 27.2 25.4 100 0.0 N 26 46 14 25 1003.2 1001.8 47.8
23/08:00pm 25.4 26.4 25.4 100 0.0 N 30 39 16 21 1002.8 1001.3 47.8
23/07:30pm 25.0 27.7 25.0 100 0.0 N 20 35 11 19 1002.5 1001.0 47.0
23/07:00pm 25.3 25.9 25.3 100 0.0 NE 32 46 17 25 1002.2 1000.7 40.0
23/06:30pm 25.2 27.2 25.2 100 0.0 ENE 24 39 13 21 1001.8 1000.3 34.2
23/06:00pm 25.1 26.7 25.1 100 0.0 ENE 26 37 14 20 1001.7 1000.2 32.2
23/05:32pm 25.2 26.5 25.2 100 0.0 NE 28 48 15 26 1002.0 1000.5 29.2
23/05:30pm 25.2 26.1 25.2 100 0.0 NE 30 48 16 26 1001.9 1000.4 29.2
23/05:24pm 25.3 26.6 25.3 100 0.0 NE 28 48 15 26 1002.0 1000.5 29.0
23/05:00pm 25.3 28.3 25.3 100 0.0 NE 19 33 10 18 1002.1 1000.6 26.4
23/04:30pm 25.3 27.8 25.3 100 0.0 ENE 22 33 12 18 1002.0 1000.5 23.0
23/04:00pm 25.1 26.7 25.1 100 0.0 NE 26 37 14 20 1002.0 1000.5 22.2
23/03:30pm 24.9 26.0 24.9 100 0.0 ENE 28 43 15 23 1001.9 1000.4 18.8
23/03:12pm 25.1 26.3 25.1 100 0.0 ENE 28 50 15 27 1002.0 1000.5 14.8
23/03:00pm 25.3 28.3 25.3 100 0.0 ENE 19 32 10 17 1002.1 1000.6 12.4
23/02:30pm 25.4 28.9 25.4 100 0.0 E 17 28 9 15 1002.3 1000.8 8.4
23/02:00pm 25.1 28.8 25.1 100 0.0 E 15 30 8 16 1002.9 1001.5 6.6
23/01:30pm 24.6 28.2 24.4 99 0.1 ENE 13 20 7 11 1003.4 1002.0 5.6
23/01:00pm 25.1 29.0 24.9 99 0.1 ENE 13 20 7 11 1004.2 1002.8 1.8
23/12:30pm 25.5 27.7 24.3 93 0.8 ENE 20 37 11 20 1004.6 1003.2 1.0
23/12:00pm 26.7 28.8 23.8 84 2.0 ENE 19 30 10 16 1004.8 1003.4 0.0
23/11:30am 27.2 30.3 24.1 83 2.2 ENE 15 22 8 12 1005.1 1003.7 0.0
23/11:00am 26.6 29.4 24.3 87 1.6 ENE 17 24 9 13 1005.7 1004.3 0.0
23/10:30am 26.6 28.1 24.3 87 1.6 E 24 35 13 19 1005.8 1004.4 0.0
23/10:00am 26.3 28.3 24.5 90 1.3 ENE 22 32 12 17 1006.1 1004.7 0.0
23/09:30am 26.0 29.1 25.7 98 0.2 ENE 20 37 11 20 1006.5 1005.0 0.0
23/09:00am 25.4 28.5 25.4 100 0.0 ENE 19 26 10 14 1006.8 1005.3 20.2
23/08:30am 24.7 28.1 24.7 100 0.0 ENE 15 24 8 13 1006.4 1004.9 20.0
23/08:00am 24.6 27.2 24.6 100 0.0 E 19 30 10 16 1005.9 1004.5 19.0
23/07:30am 24.4 26.7 24.4 100 0.0 E 20 30 11 16 1005.8 1004.4 18.4
23/07:00am 24.5 26.7 24.2 98 0.2 ESE 20 28 11 15 1005.8 1004.4 13.6
23/06:30am 24.4 26.7 24.1 98 0.2 ESE 19 24 10 13 1005.8 1004.4 13.6
23/06:00am 24.3 26.9 24.0 98 0.2 ESE 17 22 9 12 1005.8 1004.4 13.4
23/05:30am 24.5 26.5 23.6 95 0.6 ESE 19 28 10 15 1005.8 1004.4 12.6
23/05:00am 24.8 26.5 23.0 90 1.2 ESE 19 26 10 14 1005.6 1004.2 12.4
23/04:30am 24.7 26.1 22.8 89 1.3 ESE 20 28 11 15 1005.3 1003.9 12.4
23/04:00am 24.5 26.1 22.8 90 1.2 SE 19 24 10 13 1005.0 1003.6 12.4
23/03:30am 24.5 26.4 22.8 90 1.2 SE 17 22 9 12 1005.2 1003.8 12.4
23/03:00am 24.3 25.7 22.6 90 1.2 SE 19 26 10 14 1005.2 1003.8 12.4
23/02:30am 24.4 26.3 22.7 90 1.2 SE 17 24 9 13 1005.7 1004.3 12.4
23/02:00am 24.7 26.6 22.8 89 1.3 SE 17 24 9 13 1005.9 1004.5 12.4
23/01:30am 24.8 26.8 23.0 90 1.2 SE 17 24 9 13 1006.0 1004.6 12.4
23/01:00am 24.7 26.4 23.1 91 1.1 SE 19 28 10 15 1006.4 1004.9 12.4
23/12:30am 24.7 26.1 22.9 90 1.2 SE 20 28 11 15 1006.8 1005.3 12.4
23/12:00am 24.2 25.9 23.0 93 0.8 SE 19 26 10 14 1007.5 1006.0 12.4
 
Date/Time
WST
Temp
°C
App
Temp
°C
Dew
Point
°C
Rel
Hum
%
Delta-T
°C
Wind Press
QNH
hPa
Press
MSL
hPa
Rain since
9am
mm
Dir  Spd
km/h
Gust
km/h
Spd
kts
Gust
kts
22/11:30pm 24.5 26.7 23.3 93 0.8 ESE 17 26 9 14 1008.1 1006.7 12.4
22/11:00pm 24.5 27.5 23.3 93 0.8 SE 13 17 7 9 1008.5 1007.1 12.4
22/10:30pm 24.5 27.5 23.3 93 0.8 SE 13 20 7 11 1008.4 1007.0 12.4
22/10:00pm 24.4 30.2 23.9 97 0.3 CALM 0 0 0 0 1008.6 1007.2 12.4
22/09:30pm 24.2 29.4 23.5 96 0.5 SSW 2 6 1 3 1009.1 1007.7 12.4
22/09:00pm 24.0 27.2 23.0 94 0.7 S 11 15 6 8 1008.8 1007.4 12.4
22/08:30pm 23.8 27.1 22.6 93 0.8 S 9 13 5 7 1008.6 1007.2 12.4
22/08:00pm 23.9 27.5 23.0 95 0.6 SSE 9 13 5 7 1008.8 1007.4 12.4
22/07:30pm 24.1 28.2 23.9 99 0.1 S 9 13 5 7 1008.7 1007.3 12.4

Other Formats:

Comma delimited format used in spreadsheet applications
http://www.bom.gov.au/fwo/IDW60801/IDW60801.95317.axf

JavaScript Object Notation format (JSON) in row-major order
http://www.bom.gov.au/fwo/IDW60801/IDW60801.95317.json